Sect Betancourt, Puerto Rico
Current Conditions -  °F | °C
As of 11:56 AM on Thursday 18 Dec 2014 (Local Time) from TJSJ Reporting Station
Broken Clouds Broken Clouds  
Wind Chill: 81°   Ceiling: 8000
Heat Index: 85°   Visibility: 10mi
Dew Point: 71°   Wind: 14mph
Humidity: 72%   Direction: 10°N
Pressure: 30.05"   Gusts: NA
Location:  18.3754°N, 66.0577°W
Report Text: TJSJ 181556Z 01012KT 10SM FEW026 SCT034 BKN080 27/22 A3005 RMK AO2 SLP173 SHRA DSNT SW T02720217
Loading
Personal Weather Stations






























Interactive Weather Map New forecast layout! Learn more

10-Day Weather Forecast

Advertisements
Track Severe Weather on mobile